sensor_id;sensor_type;location;lat;lon;timestamp;P1;durP1;ratioP1;P2;durP2;ratioP2
54545;SDS011;40444;45.184;9.850;2024-02-26T00:00:05;7.95;;;5.95;;
54545;SDS011;40444;45.184;9.850;2024-02-26T00:02:37;7.75;;;5.55;;
54545;SDS011;40444;45.184;9.850;2024-02-26T00:05:06;6.05;;;5.45;;
54545;SDS011;40444;45.184;9.850;2024-02-26T00:07:35;7.18;;;5.90;;
54545;SDS011;40444;45.184;9.850;2024-02-26T00:10:04;7.18;;;5.63;;
54545;SDS011;40444;45.184;9.850;2024-02-26T00:12:33;7.28;;;5.88;;
54545;SDS011;40444;45.184;9.850;2024-02-26T00:15:02;7.43;;;5.90;;
54545;SDS011;40444;45.184;9.850;2024-02-26T00:17:30;7.60;;;6.35;;
54545;SDS011;40444;45.184;9.850;2024-02-26T00:19:59;8.45;;;6.55;;
54545;SDS011;40444;45.184;9.850;2024-02-26T00:22:29;9.63;;;7.03;;
54545;SDS011;40444;45.184;9.850;2024-02-26T00:24:57;8.07;;;7.20;;
54545;SDS011;40444;45.184;9.850;2024-02-26T00:27:26;11.43;;;8.05;;
54545;SDS011;40444;45.184;9.850;2024-02-26T00:29:54;12.18;;;8.48;;
54545;SDS011;40444;45.184;9.850;2024-02-26T00:32:23;10.18;;;9.15;;
54545;SDS011;40444;45.184;9.850;2024-02-26T00:34:52;10.65;;;9.05;;
54545;SDS011;40444;45.184;9.850;2024-02-26T00:37:21;10.48;;;9.38;;
54545;SDS011;40444;45.184;9.850;2024-02-26T00:39:49;12.25;;;8.75;;
54545;SDS011;40444;45.184;9.850;2024-02-26T00:42:17;12.05;;;9.70;;
54545;SDS011;40444;45.184;9.850;2024-02-26T00:44:46;10.73;;;9.50;;
54545;SDS011;40444;45.184;9.850;2024-02-26T00:47:15;11.68;;;10.02;;
54545;SDS011;40444;45.184;9.850;2024-02-26T00:49:43;12.73;;;10.02;;
54545;SDS011;40444;45.184;9.850;2024-02-26T00:52:12;14.63;;;9.90;;
54545;SDS011;40444;45.184;9.850;2024-02-26T00:54:41;11.32;;;9.95;;
54545;SDS011;40444;45.184;9.850;2024-02-26T00:57:10;15.40;;;11.38;;
54545;SDS011;40444;45.184;9.850;2024-02-26T00:59:39;12.75;;;9.85;;
54545;SDS011;40444;45.184;9.850;2024-02-26T01:02:08;12.48;;;10.85;;
54545;SDS011;40444;45.184;9.850;2024-02-26T01:04:36;15.45;;;11.30;;
54545;SDS011;40444;45.184;9.850;2024-02-26T01:07:05;13.75;;;10.82;;
54545;SDS011;40444;45.184;9.850;2024-02-26T01:09:34;15.57;;;12.23;;
54545;SDS011;40444;45.184;9.850;2024-02-26T01:12:03;16.58;;;11.50;;
54545;SDS011;40444;45.184;9.850;2024-02-26T01:14:32;12.70;;;11.40;;
54545;SDS011;40444;45.184;9.850;2024-02-26T01:17:00;14.65;;;11.65;;
54545;SDS011;40444;45.184;9.850;2024-02-26T01:19:29;14.88;;;12.23;;
54545;SDS011;40444;45.184;9.850;2024-02-26T01:21:58;14.95;;;11.65;;
54545;SDS011;40444;45.184;9.850;2024-02-26T01:24:26;16.08;;;11.60;;
54545;SDS011;40444;45.184;9.850;2024-02-26T01:26:55;14.40;;;10.77;;
54545;SDS011;40444;45.184;9.850;2024-02-26T01:29:24;14.15;;;11.68;;
54545;SDS011;40444;45.184;9.850;2024-02-26T01:31:52;16.88;;;11.05;;
54545;SDS011;40444;45.184;9.850;2024-02-26T01:34:21;18.02;;;11.43;;
54545;SDS011;40444;45.184;9.850;2024-02-26T01:36:49;12.85;;;11.20;;
54545;SDS011;40444;45.184;9.850;2024-02-26T01:39:18;12.88;;;11.45;;
54545;SDS011;40444;45.184;9.850;2024-02-26T01:41:46;13.32;;;11.80;;
54545;SDS011;40444;45.184;9.850;2024-02-26T01:44:15;18.35;;;12.13;;
54545;SDS011;40444;45.184;9.850;2024-02-26T01:46:43;13.10;;;11.65;;
54545;SDS011;40444;45.184;9.850;2024-02-26T01:49:11;12.30;;;10.90;;
54545;SDS011;40444;45.184;9.850;2024-02-26T01:51:41;14.65;;;13.07;;
54545;SDS011;40444;45.184;9.850;2024-02-26T01:54:11;14.63;;;12.10;;
54545;SDS011;40444;45.184;9.850;2024-02-26T01:56:40;18.67;;;13.57;;
54545;SDS011;40444;45.184;9.850;2024-02-26T01:59:09;15.65;;;12.80;;
54545;SDS011;40444;45.184;9.850;2024-02-26T02:01:38;15.05;;;12.45;;
54545;SDS011;40444;45.184;9.850;2024-02-26T02:04:13;13.93;;;12.43;;
54545;SDS011;40444;45.184;9.850;2024-02-26T02:06:43;15.38;;;13.10;;
54545;SDS011;40444;45.184;9.850;2024-02-26T02:09:14;14.15;;;12.63;;
54545;SDS011;40444;45.184;9.850;2024-02-26T02:11:43;18.05;;;13.63;;
54545;SDS011;40444;45.184;9.850;2024-02-26T02:14:12;15.98;;;13.55;;
54545;SDS011;40444;45.184;9.850;2024-02-26T02:16:41;15.63;;;12.75;;
54545;SDS011;40444;45.184;9.850;2024-02-26T02:19:09;16.13;;;13.75;;
54545;SDS011;40444;45.184;9.850;2024-02-26T02:21:38;15.88;;;12.93;;
54545;SDS011;40444;45.184;9.850;2024-02-26T02:24:07;15.93;;;13.07;;
54545;SDS011;40444;45.184;9.850;2024-02-26T02:26:35;18.40;;;13.65;;
54545;SDS011;40444;45.184;9.850;2024-02-26T02:29:05;15.20;;;13.27;;
54545;SDS011;40444;45.184;9.850;2024-02-26T02:31:34;13.75;;;12.32;;
54545;SDS011;40444;45.184;9.850;2024-02-26T02:34:03;15.07;;;12.27;;
54545;SDS011;40444;45.184;9.850;2024-02-26T02:36:32;15.32;;;12.48;;
54545;SDS011;40444;45.184;9.850;2024-02-26T02:39:00;14.80;;;12.38;;
54545;SDS011;40444;45.184;9.850;2024-02-26T02:41:29;15.65;;;12.18;;
54545;SDS011;40444;45.184;9.850;2024-02-26T02:43:57;13.98;;;11.70;;
54545;SDS011;40444;45.184;9.850;2024-02-26T02:46:26;14.90;;;11.05;;
54545;SDS011;40444;45.184;9.850;2024-02-26T02:48:54;12.50;;;11.20;;
54545;SDS011;40444;45.184;9.850;2024-02-26T02:51:23;12.60;;;11.20;;
54545;SDS011;40444;45.184;9.850;2024-02-26T02:53:52;15.65;;;11.48;;
54545;SDS011;40444;45.184;9.850;2024-02-26T02:56:21;13.85;;;11.57;;
54545;SDS011;40444;45.184;9.850;2024-02-26T02:58:49;12.73;;;10.82;;
54545;SDS011;40444;45.184;9.850;2024-02-26T03:01:18;14.35;;;11.02;;
54545;SDS011;40444;45.184;9.850;2024-02-26T03:03:46;12.65;;;10.88;;
54545;SDS011;40444;45.184;9.850;2024-02-26T03:06:15;12.48;;;10.40;;
54545;SDS011;40444;45.184;9.850;2024-02-26T03:08:44;12.27;;;10.48;;
54545;SDS011;40444;45.184;9.850;2024-02-26T03:11:13;11.13;;;10.00;;
54545;SDS011;40444;45.184;9.850;2024-02-26T03:13:43;14.27;;;11.23;;
54545;SDS011;40444;45.184;9.850;2024-02-26T03:16:11;12.93;;;10.27;;
54545;SDS011;40444;45.184;9.850;2024-02-26T03:18:40;11.75;;;10.50;;
54545;SDS011;40444;45.184;9.850;2024-02-26T03:21:09;14.32;;;10.13;;
54545;SDS011;40444;45.184;9.850;2024-02-26T03:23:37;12.85;;;10.30;;
54545;SDS011;40444;45.184;9.850;2024-02-26T03:26:06;12.23;;;10.23;;
54545;SDS011;40444;45.184;9.850;2024-02-26T03:28:34;13.30;;;10.23;;
54545;SDS011;40444;45.184;9.850;2024-02-26T03:31:03;12.98;;;11.20;;
54545;SDS011;40444;45.184;9.850;2024-02-26T03:33:32;14.65;;;10.85;;
54545;SDS011;40444;45.184;9.850;2024-02-26T03:36:00;13.18;;;10.70;;
54545;SDS011;40444;45.184;9.850;2024-02-26T03:38:30;13.40;;;10.07;;
54545;SDS011;40444;45.184;9.850;2024-02-26T03:40:58;14.05;;;10.52;;
54545;SDS011;40444;45.184;9.850;2024-02-26T03:43:27;13.48;;;10.43;;
54545;SDS011;40444;45.184;9.850;2024-02-26T03:45:56;10.63;;;9.40;;
54545;SDS011;40444;45.184;9.850;2024-02-26T03:48:24;11.80;;;10.57;;
54545;SDS011;40444;45.184;9.850;2024-02-26T03:50:52;14.27;;;10.00;;
54545;SDS011;40444;45.184;9.850;2024-02-26T03:53:21;11.43;;;8.60;;
54545;SDS011;40444;45.184;9.850;2024-02-26T03:55:49;11.85;;;10.10;;
54545;SDS011;40444;45.184;9.850;2024-02-26T03:58:19;11.25;;;9.18;;
54545;SDS011;40444;45.184;9.850;2024-02-26T04:00:47;10.98;;;9.05;;
54545;SDS011;40444;45.184;9.850;2024-02-26T04:03:16;11.60;;;8.55;;
54545;SDS011;40444;45.184;9.850;2024-02-26T04:05:44;11.48;;;9.05;;
54545;SDS011;40444;45.184;9.850;2024-02-26T04:08:13;12.73;;;8.30;;
54545;SDS011;40444;45.184;9.850;2024-02-26T04:10:41;11.32;;;8.80;;
54545;SDS011;40444;45.184;9.850;2024-02-26T04:13:10;11.05;;;8.52;;
54545;SDS011;40444;45.184;9.850;2024-02-26T04:15:38;11.20;;;9.10;;
54545;SDS011;40444;45.184;9.850;2024-02-26T04:18:06;12.35;;;9.15;;
54545;SDS011;40444;45.184;9.850;2024-02-26T04:20:35;12.25;;;9.52;;
54545;SDS011;40444;45.184;9.850;2024-02-26T04:23:04;10.52;;;9.38;;
54545;SDS011;40444;45.184;9.850;2024-02-26T04:25:33;12.45;;;9.90;;
54545;SDS011;40444;45.184;9.850;2024-02-26T04:28:02;10.98;;;8.75;;
54545;SDS011;40444;45.184;9.850;2024-02-26T04:30:31;12.32;;;9.20;;
54545;SDS011;40444;45.184;9.850;2024-02-26T04:32:59;11.57;;;9.50;;
54545;SDS011;40444;45.184;9.850;2024-02-26T04:35:28;11.32;;;9.43;;
54545;SDS011;40444;45.184;9.850;2024-02-26T04:37:57;9.35;;;8.43;;
54545;SDS011;40444;45.184;9.850;2024-02-26T04:40:26;11.30;;;8.60;;
54545;SDS011;40444;45.184;9.850;2024-02-26T04:42:54;9.85;;;8.45;;
54545;SDS011;40444;45.184;9.850;2024-02-26T04:45:23;11.93;;;8.40;;
54545;SDS011;40444;45.184;9.850;2024-02-26T04:47:51;11.70;;;9.02;;
54545;SDS011;40444;45.184;9.850;2024-02-26T04:50:19;9.85;;;8.85;;
54545;SDS011;40444;45.184;9.850;2024-02-26T04:52:48;11.82;;;9.40;;
54545;SDS011;40444;45.184;9.850;2024-02-26T04:55:17;11.63;;;8.75;;
54545;SDS011;40444;45.184;9.850;2024-02-26T04:57:45;10.98;;;9.43;;
54545;SDS011;40444;45.184;9.850;2024-02-26T05:00:14;10.23;;;9.02;;
54545;SDS011;40444;45.184;9.850;2024-02-26T05:02:42;10.20;;;9.05;;
54545;SDS011;40444;45.184;9.850;2024-02-26T05:05:11;10.55;;;8.75;;
54545;SDS011;40444;45.184;9.850;2024-02-26T05:07:41;12.40;;;9.93;;
54545;SDS011;40444;45.184;9.850;2024-02-26T05:10:13;12.95;;;9.23;;
54545;SDS011;40444;45.184;9.850;2024-02-26T05:12:41;11.00;;;9.40;;
54545;SDS011;40444;45.184;9.850;2024-02-26T05:15:10;13.95;;;9.73;;
54545;SDS011;40444;45.184;9.850;2024-02-26T05:17:39;12.85;;;9.95;;
54545;SDS011;40444;45.184;9.850;2024-02-26T05:20:07;11.27;;;9.90;;
54545;SDS011;40444;45.184;9.850;2024-02-26T05:22:36;14.48;;;10.02;;
54545;SDS011;40444;45.184;9.850;2024-02-26T05:25:05;11.02;;;9.77;;
54545;SDS011;40444;45.184;9.850;2024-02-26T05:27:34;10.57;;;9.48;;
54545;SDS011;40444;45.184;9.850;2024-02-26T05:30:02;15.27;;;10.38;;
54545;SDS011;40444;45.184;9.850;2024-02-26T05:32:31;13.73;;;9.30;;
54545;SDS011;40444;45.184;9.850;2024-02-26T05:35:00;11.88;;;9.38;;
54545;SDS011;40444;45.184;9.850;2024-02-26T05:37:29;13.88;;;9.40;;
54545;SDS011;40444;45.184;9.850;2024-02-26T05:39:59;10.77;;;9.00;;
54545;SDS011;40444;45.184;9.850;2024-02-26T05:42:27;12.10;;;9.43;;
54545;SDS011;40444;45.184;9.850;2024-02-26T05:44:56;11.73;;;8.55;;
54545;SDS011;40444;45.184;9.850;2024-02-26T05:47:25;12.50;;;9.35;;
54545;SDS011;40444;45.184;9.850;2024-02-26T05:49:54;11.82;;;9.68;;
54545;SDS011;40444;45.184;9.850;2024-02-26T05:52:23;12.55;;;9.60;;
54545;SDS011;40444;45.184;9.850;2024-02-26T05:54:53;11.95;;;9.45;;
54545;SDS011;40444;45.184;9.850;2024-02-26T05:57:22;12.45;;;10.20;;
54545;SDS011;40444;45.184;9.850;2024-02-26T05:59:50;13.80;;;9.80;;
54545;SDS011;40444;45.184;9.850;2024-02-26T06:02:19;12.13;;;10.05;;
54545;SDS011;40444;45.184;9.850;2024-02-26T06:04:47;13.00;;;9.57;;
54545;SDS011;40444;45.184;9.850;2024-02-26T06:07:16;10.23;;;9.15;;
54545;SDS011;40444;45.184;9.850;2024-02-26T06:09:45;12.07;;;10.15;;
54545;SDS011;40444;45.184;9.850;2024-02-26T06:12:13;14.73;;;10.90;;
54545;SDS011;40444;45.184;9.850;2024-02-26T06:14:42;13.95;;;10.63;;
54545;SDS011;40444;45.184;9.850;2024-02-26T06:17:11;13.48;;;11.40;;
54545;SDS011;40444;45.184;9.850;2024-02-26T06:19:39;13.52;;;10.82;;
54545;SDS011;40444;45.184;9.850;2024-02-26T06:22:08;13.70;;;11.15;;
54545;SDS011;40444;45.184;9.850;2024-02-26T06:24:37;13.55;;;10.70;;
54545;SDS011;40444;45.184;9.850;2024-02-26T06:27:07;17.17;;;11.95;;
54545;SDS011;40444;45.184;9.850;2024-02-26T06:29:36;15.70;;;13.18;;
54545;SDS011;40444;45.184;9.850;2024-02-26T06:32:04;15.43;;;12.70;;
54545;SDS011;40444;45.184;9.850;2024-02-26T06:34:33;16.08;;;13.05;;
54545;SDS011;40444;45.184;9.850;2024-02-26T06:37:02;16.00;;;12.82;;
54545;SDS011;40444;45.184;9.850;2024-02-26T06:39:31;16.08;;;12.73;;
54545;SDS011;40444;45.184;9.850;2024-02-26T06:42:00;18.85;;;12.82;;
54545;SDS011;40444;45.184;9.850;2024-02-26T06:44:29;14.32;;;11.82;;
54545;SDS011;40444;45.184;9.850;2024-02-26T06:47:00;15.50;;;13.75;;
54545;SDS011;40444;45.184;9.850;2024-02-26T06:49:28;18.60;;;12.82;;
54545;SDS011;40444;45.184;9.850;2024-02-26T06:51:57;17.00;;;13.05;;
54545;SDS011;40444;45.184;9.850;2024-02-26T06:54:26;13.60;;;12.05;;
54545;SDS011;40444;45.184;9.850;2024-02-26T06:56:54;17.17;;;13.05;;
54545;SDS011;40444;45.184;9.850;2024-02-26T06:59:23;15.20;;;12.68;;
54545;SDS011;40444;45.184;9.850;2024-02-26T07:01:52;18.23;;;13.27;;
54545;SDS011;40444;45.184;9.850;2024-02-26T07:04:22;17.83;;;13.98;;
54545;SDS011;40444;45.184;9.850;2024-02-26T07:06:51;17.63;;;13.20;;
54545;SDS011;40444;45.184;9.850;2024-02-26T07:09:19;16.20;;;12.68;;
54545;SDS011;40444;45.184;9.850;2024-02-26T07:11:48;13.57;;;11.93;;
54545;SDS011;40444;45.184;9.850;2024-02-26T07:14:16;16.67;;;12.98;;
54545;SDS011;40444;45.184;9.850;2024-02-26T07:16:45;13.57;;;12.15;;
54545;SDS011;40444;45.184;9.850;2024-02-26T07:19:13;16.50;;;12.18;;
54545;SDS011;40444;45.184;9.850;2024-02-26T07:21:42;15.73;;;12.70;;
54545;SDS011;40444;45.184;9.850;2024-02-26T07:24:10;15.88;;;13.23;;
54545;SDS011;40444;45.184;9.850;2024-02-26T07:26:42;15.82;;;14.02;;
54545;SDS011;40444;45.184;9.850;2024-02-26T07:29:11;22.65;;;15.32;;
54545;SDS011;40444;45.184;9.850;2024-02-26T07:31:40;17.40;;;14.38;;
54545;SDS011;40444;45.184;9.850;2024-02-26T07:34:09;54.95;;;29.75;;
54545;SDS011;40444;45.184;9.850;2024-02-26T07:36:38;26.23;;;19.63;;
54545;SDS011;40444;45.184;9.850;2024-02-26T07:39:08;22.88;;;18.77;;
54545;SDS011;40444;45.184;9.850;2024-02-26T07:41:36;23.88;;;20.38;;
54545;SDS011;40444;45.184;9.850;2024-02-26T07:44:07;21.70;;;17.17;;
54545;SDS011;40444;45.184;9.850;2024-02-26T07:46:37;21.25;;;18.25;;
54545;SDS011;40444;45.184;9.850;2024-02-26T07:49:05;25.00;;;18.67;;
54545;SDS011;40444;45.184;9.850;2024-02-26T07:51:33;19.25;;;17.13;;
54545;SDS011;40444;45.184;9.850;2024-02-26T07:54:03;20.88;;;16.58;;
54545;SDS011;40444;45.184;9.850;2024-02-26T07:56:31;23.00;;;18.00;;
54545;SDS011;40444;45.184;9.850;2024-02-26T07:59:00;23.92;;;18.52;;
54545;SDS011;40444;45.184;9.850;2024-02-26T08:01:28;25.48;;;18.70;;
54545;SDS011;40444;45.184;9.850;2024-02-26T08:03:57;23.08;;;19.80;;
54545;SDS011;40444;45.184;9.850;2024-02-26T08:06:26;23.85;;;18.25;;
54545;SDS011;40444;45.184;9.850;2024-02-26T08:08:55;25.75;;;20.83;;
54545;SDS011;40444;45.184;9.850;2024-02-26T08:11:24;24.98;;;20.42;;
54545;SDS011;40444;45.184;9.850;2024-02-26T08:13:52;26.02;;;20.30;;
54545;SDS011;40444;45.184;9.850;2024-02-26T08:16:21;25.58;;;20.92;;
54545;SDS011;40444;45.184;9.850;2024-02-26T08:18:50;27.13;;;20.40;;
54545;SDS011;40444;45.184;9.850;2024-02-26T08:21:18;26.48;;;21.20;;
54545;SDS011;40444;45.184;9.850;2024-02-26T08:23:47;25.25;;;20.65;;
54545;SDS011;40444;45.184;9.850;2024-02-26T08:26:15;25.75;;;21.00;;
54545;SDS011;40444;45.184;9.850;2024-02-26T08:28:44;29.67;;;20.33;;
54545;SDS011;40444;45.184;9.850;2024-02-26T08:31:13;25.70;;;19.55;;
54545;SDS011;40444;45.184;9.850;2024-02-26T08:33:42;24.20;;;19.23;;
54545;SDS011;40444;45.184;9.850;2024-02-26T08:36:11;23.42;;;20.15;;
54545;SDS011;40444;45.184;9.850;2024-02-26T08:38:40;23.75;;;19.88;;
54545;SDS011;40444;45.184;9.850;2024-02-26T08:41:08;26.23;;;20.25;;
54545;SDS011;40444;45.184;9.850;2024-02-26T08:43:37;24.05;;;19.63;;
54545;SDS011;40444;45.184;9.850;2024-02-26T08:46:08;29.13;;;21.25;;
54545;SDS011;40444;45.184;9.850;2024-02-26T08:48:38;30.17;;;21.95;;
54545;SDS011;40444;45.184;9.850;2024-02-26T08:51:08;26.92;;;21.55;;
54545;SDS011;40444;45.184;9.850;2024-02-26T08:53:36;26.58;;;21.98;;
54545;SDS011;40444;45.184;9.850;2024-02-26T08:56:10;26.73;;;22.02;;
54545;SDS011;40444;45.184;9.850;2024-02-26T08:58:45;27.65;;;22.30;;
54545;SDS011;40444;45.184;9.850;2024-02-26T09:01:16;29.95;;;22.38;;
54545;SDS011;40444;45.184;9.850;2024-02-26T09:03:45;29.20;;;22.20;;
54545;SDS011;40444;45.184;9.850;2024-02-26T09:06:14;29.23;;;22.10;;
54545;SDS011;40444;45.184;9.850;2024-02-26T09:08:43;30.33;;;22.60;;
54545;SDS011;40444;45.184;9.850;2024-02-26T09:11:12;26.80;;;20.85;;
54545;SDS011;40444;45.184;9.850;2024-02-26T09:13:41;29.67;;;20.90;;
54545;SDS011;40444;45.184;9.850;2024-02-26T09:16:11;30.33;;;22.60;;
54545;SDS011;40444;45.184;9.850;2024-02-26T09:18:40;28.95;;;21.75;;
54545;SDS011;40444;45.184;9.850;2024-02-26T09:21:09;29.40;;;21.27;;
54545;SDS011;40444;45.184;9.850;2024-02-26T09:23:37;42.67;;;29.13;;
54545;SDS011;40444;45.184;9.850;2024-02-26T09:26:06;25.27;;;19.30;;
54545;SDS011;40444;45.184;9.850;2024-02-26T09:28:34;27.58;;;20.00;;
54545;SDS011;40444;45.184;9.850;2024-02-26T09:31:05;25.25;;;18.90;;
54545;SDS011;40444;45.184;9.850;2024-02-26T09:33:34;21.30;;;17.38;;
54545;SDS011;40444;45.184;9.850;2024-02-26T09:36:04;23.00;;;17.20;;
54545;SDS011;40444;45.184;9.850;2024-02-26T09:38:34;20.63;;;16.73;;
54545;SDS011;40444;45.184;9.850;2024-02-26T09:41:22;20.73;;;15.98;;
54545;SDS011;40444;45.184;9.850;2024-02-26T09:43:51;23.45;;;17.08;;
54545;SDS011;40444;45.184;9.850;2024-02-26T09:46:25;22.90;;;17.35;;
54545;SDS011;40444;45.184;9.850;2024-02-26T09:48:53;20.27;;;15.68;;
54545;SDS011;40444;45.184;9.850;2024-02-26T09:51:24;20.45;;;16.00;;
54545;SDS011;40444;45.184;9.850;2024-02-26T09:53:53;21.00;;;16.88;;
54545;SDS011;40444;45.184;9.850;2024-02-26T09:56:25;22.70;;;18.08;;
54545;SDS011;40444;45.184;9.850;2024-02-26T09:58:54;24.58;;;16.45;;
54545;SDS011;40444;45.184;9.850;2024-02-26T10:01:25;23.60;;;16.77;;
54545;SDS011;40444;45.184;9.850;2024-02-26T10:03:55;21.20;;;15.38;;
54545;SDS011;40444;45.184;9.850;2024-02-26T10:06:26;24.67;;;16.38;;
54545;SDS011;40444;45.184;9.850;2024-02-26T10:08:56;19.23;;;15.85;;
54545;SDS011;40444;45.184;9.850;2024-02-26T10:11:27;23.38;;;17.02;;
54545;SDS011;40444;45.184;9.850;2024-02-26T10:13:56;20.65;;;16.83;;
54545;SDS011;40444;45.184;9.850;2024-02-26T10:16:25;22.75;;;17.73;;
54545;SDS011;40444;45.184;9.850;2024-02-26T10:18:54;22.67;;;17.67;;
54545;SDS011;40444;45.184;9.850;2024-02-26T10:21:26;21.42;;;17.45;;
54545;SDS011;40444;45.184;9.850;2024-02-26T10:23:56;25.38;;;17.75;;
54545;SDS011;40444;45.184;9.850;2024-02-26T10:26:24;22.17;;;18.10;;
54545;SDS011;40444;45.184;9.850;2024-02-26T10:28:53;23.25;;;19.17;;
54545;SDS011;40444;45.184;9.850;2024-02-26T10:31:27;28.30;;;19.33;;
54545;SDS011;40444;45.184;9.850;2024-02-26T10:33:55;26.33;;;19.50;;
54545;SDS011;40444;45.184;9.850;2024-02-26T10:36:29;30.75;;;22.92;;
54545;SDS011;40444;45.184;9.850;2024-02-26T10:39:14;23.88;;;19.80;;
54545;SDS011;40444;45.184;9.850;2024-02-26T10:41:46;26.73;;;19.05;;
54545;SDS011;40444;45.184;9.850;2024-02-26T10:44:14;23.63;;;18.63;;
54545;SDS011;40444;45.184;9.850;2024-02-26T10:46:46;21.77;;;16.77;;
54545;SDS011;40444;45.184;9.850;2024-02-26T10:49:18;19.48;;;14.85;;
54545;SDS011;40444;45.184;9.850;2024-02-26T10:51:54;18.17;;;13.77;;
54545;SDS011;40444;45.184;9.850;2024-02-26T10:54:27;21.25;;;14.80;;
54545;SDS011;40444;45.184;9.850;2024-02-26T10:56:58;19.30;;;13.30;;
54545;SDS011;40444;45.184;9.850;2024-02-26T10:59:28;18.75;;;12.63;;
54545;SDS011;40444;45.184;9.850;2024-02-26T11:02:00;16.83;;;13.55;;
54545;SDS011;40444;45.184;9.850;2024-02-26T11:04:30;19.27;;;15.02;;
54545;SDS011;40444;45.184;9.850;2024-02-26T11:06:59;17.38;;;13.75;;
54545;SDS011;40444;45.184;9.850;2024-02-26T11:09:29;16.50;;;12.00;;
54545;SDS011;40444;45.184;9.850;2024-02-26T11:11:59;12.70;;;9.07;;
54545;SDS011;40444;45.184;9.850;2024-02-26T11:14:29;11.15;;;9.02;;
54545;SDS011;40444;45.184;9.850;2024-02-26T11:16:59;12.73;;;10.48;;
54545;SDS011;40444;45.184;9.850;2024-02-26T11:19:28;12.80;;;9.13;;
54545;SDS011;40444;45.184;9.850;2024-02-26T11:22:04;14.35;;;9.43;;
54545;SDS011;40444;45.184;9.850;2024-02-26T11:24:48;13.32;;;9.43;;
54545;SDS011;40444;45.184;9.850;2024-02-26T11:27:18;16.90;;;9.35;;
54545;SDS011;40444;45.184;9.850;2024-02-26T11:29:52;13.70;;;8.10;;
54545;SDS011;40444;45.184;9.850;2024-02-26T11:32:22;9.48;;;7.47;;
54545;SDS011;40444;45.184;9.850;2024-02-26T11:34:51;13.57;;;8.27;;
54545;SDS011;40444;45.184;9.850;2024-02-26T11:37:20;12.98;;;8.77;;
54545;SDS011;40444;45.184;9.850;2024-02-26T11:39:48;14.15;;;10.00;;
54545;SDS011;40444;45.184;9.850;2024-02-26T11:42:23;13.63;;;10.27;;
54545;SDS011;40444;45.184;9.850;2024-02-26T11:44:54;13.43;;;10.07;;
54545;SDS011;40444;45.184;9.850;2024-02-26T11:47:24;13.70;;;9.68;;
54545;SDS011;40444;45.184;9.850;2024-02-26T11:49:53;14.18;;;9.18;;
54545;SDS011;40444;45.184;9.850;2024-02-26T11:52:22;10.35;;;8.45;;
54545;SDS011;40444;45.184;9.850;2024-02-26T11:54:52;10.27;;;7.13;;
54545;SDS011;40444;45.184;9.850;2024-02-26T11:57:22;19.92;;;8.35;;
54545;SDS011;40444;45.184;9.850;2024-02-26T12:00:17;9.15;;;6.60;;
54545;SDS011;40444;45.184;9.850;2024-02-26T12:02:51;8.15;;;5.95;;
54545;SDS011;40444;45.184;9.850;2024-02-26T12:05:27;8.20;;;5.88;;
54545;SDS011;40444;45.184;9.850;2024-02-26T12:08:01;8.15;;;6.20;;
54545;SDS011;40444;45.184;9.850;2024-02-26T12:10:38;5.00;;;3.92;;
54545;SDS011;40444;45.184;9.850;2024-02-26T12:13:11;6.18;;;3.63;;
54545;SDS011;40444;45.184;9.850;2024-02-26T12:15:56;6.35;;;3.75;;
54545;SDS011;40444;45.184;9.850;2024-02-26T12:18:26;5.55;;;3.70;;
54545;SDS011;40444;45.184;9.850;2024-02-26T12:20:59;4.32;;;2.67;;
54545;SDS011;40444;45.184;9.850;2024-02-26T12:23:32;4.30;;;2.17;;
54545;SDS011;40444;45.184;9.850;2024-02-26T12:26:01;3.78;;;2.65;;
54545;SDS011;40444;45.184;9.850;2024-02-26T12:28:34;5.80;;;2.65;;
54545;SDS011;40444;45.184;9.850;2024-02-26T12:31:03;3.70;;;2.60;;
54545;SDS011;40444;45.184;9.850;2024-02-26T12:33:32;3.88;;;2.47;;
54545;SDS011;40444;45.184;9.850;2024-02-26T12:36:02;5.13;;;3.53;;
54545;SDS011;40444;45.184;9.850;2024-02-26T12:38:30;3.22;;;1.98;;
54545;SDS011;40444;45.184;9.850;2024-02-26T12:41:00;3.55;;;1.77;;
54545;SDS011;40444;45.184;9.850;2024-02-26T12:43:30;3.88;;;1.92;;
54545;SDS011;40444;45.184;9.850;2024-02-26T12:45:58;2.92;;;1.80;;
54545;SDS011;40444;45.184;9.850;2024-02-26T12:48:31;2.33;;;1.40;;
54545;SDS011;40444;45.184;9.850;2024-02-26T12:51:00;2.10;;;1.52;;
54545;SDS011;40444;45.184;9.850;2024-02-26T12:53:28;2.47;;;1.10;;
54545;SDS011;40444;45.184;9.850;2024-02-26T12:55:57;2.45;;;1.63;;
54545;SDS011;40444;45.184;9.850;2024-02-26T12:58:26;3.78;;;1.70;;
54545;SDS011;40444;45.184;9.850;2024-02-26T13:00:56;5.47;;;1.52;;
54545;SDS011;40444;45.184;9.850;2024-02-26T13:03:25;2.15;;;1.35;;
54545;SDS011;40444;45.184;9.850;2024-02-26T13:05:55;4.57;;;2.03;;
54545;SDS011;40444;45.184;9.850;2024-02-26T13:08:24;4.30;;;2.03;;
54545;SDS011;40444;45.184;9.850;2024-02-26T13:10:52;4.30;;;2.42;;
54545;SDS011;40444;45.184;9.850;2024-02-26T13:13:22;4.40;;;2.20;;
54545;SDS011;40444;45.184;9.850;2024-02-26T13:15:50;3.80;;;2.30;;
54545;SDS011;40444;45.184;9.850;2024-02-26T13:18:34;3.97;;;1.90;;
54545;SDS011;40444;45.184;9.850;2024-02-26T13:21:11;4.35;;;1.70;;
54545;SDS011;40444;45.184;9.850;2024-02-26T13:23:42;2.85;;;1.48;;
54545;SDS011;40444;45.184;9.850;2024-02-26T13:26:11;3.33;;;1.50;;
54545;SDS011;40444;45.184;9.850;2024-02-26T13:28:41;1.70;;;1.00;;
54545;SDS011;40444;45.184;9.850;2024-02-26T13:31:10;2.28;;;1.40;;
54545;SDS011;40444;45.184;9.850;2024-02-26T13:33:39;2.85;;;1.40;;
54545;SDS011;40444;45.184;9.850;2024-02-26T13:36:08;2.60;;;1.80;;
54545;SDS011;40444;45.184;9.850;2024-02-26T13:38:37;2.33;;;1.58;;
54545;SDS011;40444;45.184;9.850;2024-02-26T13:41:09;5.22;;;1.83;;
54545;SDS011;40444;45.184;9.850;2024-02-26T13:43:38;4.20;;;2.97;;
54545;SDS011;40444;45.184;9.850;2024-02-26T13:46:07;14.90;;;7.15;;
54545;SDS011;40444;45.184;9.850;2024-02-26T13:48:36;3.92;;;2.60;;
54545;SDS011;40444;45.184;9.850;2024-02-26T13:51:05;4.57;;;2.60;;
54545;SDS011;40444;45.184;9.850;2024-02-26T13:53:34;3.03;;;2.13;;
54545;SDS011;40444;45.184;9.850;2024-02-26T13:56:03;6.35;;;2.40;;
54545;SDS011;40444;45.184;9.850;2024-02-26T13:58:33;4.20;;;2.13;;
54545;SDS011;40444;45.184;9.850;2024-02-26T14:01:02;3.38;;;2.28;;
54545;SDS011;40444;45.184;9.850;2024-02-26T14:03:31;3.83;;;2.70;;
54545;SDS011;40444;45.184;9.850;2024-02-26T14:06:00;4.35;;;2.50;;
54545;SDS011;40444;45.184;9.850;2024-02-26T14:08:30;3.65;;;2.75;;
54545;SDS011;40444;45.184;9.850;2024-02-26T14:10:58;3.10;;;2.10;;
54545;SDS011;40444;45.184;9.850;2024-02-26T14:13:28;2.47;;;1.92;;
54545;SDS011;40444;45.184;9.850;2024-02-26T14:15:57;3.47;;;1.95;;
54545;SDS011;40444;45.184;9.850;2024-02-26T14:18:25;2.28;;;1.88;;
54545;SDS011;40444;45.184;9.850;2024-02-26T14:20:55;2.00;;;1.60;;
54545;SDS011;40444;45.184;9.850;2024-02-26T14:23:24;3.45;;;1.98;;
54545;SDS011;40444;45.184;9.850;2024-02-26T14:25:52;2.65;;;1.92;;
54545;SDS011;40444;45.184;9.850;2024-02-26T14:28:21;3.88;;;2.03;;
54545;SDS011;40444;45.184;9.850;2024-02-26T14:30:59;2.53;;;1.90;;
54545;SDS011;40444;45.184;9.850;2024-02-26T14:33:27;2.92;;;2.13;;
54545;SDS011;40444;45.184;9.850;2024-02-26T14:35:56;5.80;;;2.20;;
54545;SDS011;40444;45.184;9.850;2024-02-26T14:38:25;2.95;;;2.33;;
54545;SDS011;40444;45.184;9.850;2024-02-26T14:40:54;4.05;;;2.50;;
54545;SDS011;40444;45.184;9.850;2024-02-26T14:43:22;5.03;;;3.17;;